Time;durP1;ratioP1;P1;durP2;ratioP2;P2;SDS_P1;SDS_P2;PMS_P1;PMS_P2;Temp;Humidity;BMP_temperature;BMP_pressure;BME280_temperature;BME280_humidity;BME280_pressure;Samples;Min_cycle;Max_cycle;Signal;HPM_P1;HPM_P2
2021/10/14 00:01:18;;;;;;;;;11.50;10.50;;;;;14.65;47.86;99015.78;4809576;28;103364;-84
2021/10/14 00:03:45;;;;;;;;;13.00;10.00;;;;;14.65;47.38;99009.50;4782071;28;104406;-84
2021/10/14 00:06:12;;;;;;;;;16.00;12.25;;;;;14.65;47.72;99018.50;4778797;28;102539;-84
2021/10/14 00:08:39;;;;;;;;;14.25;10.50;;;;;14.64;47.16;99016.84;4775698;28;102508;-83
2021/10/14 00:11:06;;;;;;;;;12.00;10.75;;;;;14.64;47.31;99011.41;4773447;28;103965;-84
2021/10/14 00:13:34;;;;;;;;;14.00;11.50;;;;;14.64;47.70;99008.66;4808955;28;109000;-83
2021/10/14 00:16:01;;;;;;;;;15.25;13.00;;;;;14.64;47.97;99008.66;4815775;28;102232;-84
2021/10/14 00:18:28;;;;;;;;;14.75;13.75;;;;;14.63;47.40;99000.75;4821953;28;102543;-84
2021/10/14 00:20:55;;;;;;;;;12.75;10.75;;;;;14.63;47.86;99008.91;4826621;28;102518;-83
2021/10/14 00:23:22;;;;;;;;;10.50;10.00;;;;;14.61;47.08;99011.84;4818480;28;104282;-85
2021/10/14 00:25:49;;;;;;;;;17.50;14.50;;;;;14.63;47.66;99011.63;4813318;28;103026;-84
2021/10/14 00:28:17;;;;;;;;;9.75;9.50;;;;;14.63;47.83;99008.91;4823099;28;102454;-84
2021/10/14 00:30:44;;;;;;;;;13.25;12.25;;;;;14.62;47.20;99009.94;4810584;28;102936;-84
2021/10/14 00:33:11;;;;;;;;;10.75;10.75;;;;;14.61;47.71;99013.72;4825093;28;104256;-83
2021/10/14 00:35:39;;;;;;;;;11.00;10.25;;;;;14.62;48.05;99004.50;4826868;28;104074;-84
2021/10/14 00:38:06;;;;;;;;;10.50;9.00;;;;;14.62;47.57;99007.22;4811419;28;103972;-84
2021/10/14 00:40:33;;;;;;;;;9.00;8.25;;;;;14.61;47.38;99009.13;4820450;28;102556;-84
2021/10/14 00:43:00;;;;;;;;;10.50;10.00;;;;;14.61;47.15;99011.00;4810850;28;104060;-84
2021/10/14 00:45:27;;;;;;;;;11.00;10.50;;;;;14.61;47.63;99019.16;4813312;28;102534;-84
2021/10/14 00:47:55;;;;;;;;;10.25;9.00;;;;;14.62;47.44;99015.41;4820665;28;102187;-84
2021/10/14 00:50:22;;;;;;;;;14.25;10.00;;;;;14.61;47.34;99016.44;4814813;28;104365;-84
2021/10/14 00:52:52;;;;;;;;;10.75;9.00;;;;;14.60;47.59;99009.31;4814910;28;104209;-84
2021/10/14 00:55:19;;;;;;;;;9.25;9.00;;;;;14.60;47.60;99018.31;4792349;28;102475;-84
2021/10/14 00:57:46;;;;;;;;;11.25;10.50;;;;;14.61;47.10;99019.16;4830983;28;103794;-83
2021/10/14 01:00:13;;;;;;;;;10.50;9.00;;;;;14.59;47.55;99007.69;4822724;28;103388;-83
2021/10/14 01:02:40;;;;;;;;;11.75;9.50;;;;;14.55;47.75;99012.69;4724125;28;108846;-84
2021/10/14 01:05:07;;;;;;;;;15.75;11.00;;;;;14.59;47.83;99019.38;4787264;28;102619;-84
2021/10/14 01:07:34;;;;;;;;;10.75;9.00;;;;;14.59;47.18;99015.84;4775809;28;102791;-84
2021/10/14 01:10:02;;;;;;;;;8.00;8.00;;;;;14.58;47.48;99014.16;4762705;28;103013;-84
2021/10/14 01:12:29;;;;;;;;;10.25;9.00;;;;;14.58;47.65;99016.88;4797921;28;104053;-84
2021/10/14 01:14:56;;;;;;;;;10.50;10.50;;;;;14.59;47.63;99018.56;4819878;28;102583;-84
2021/10/14 01:17:23;;;;;;;;;9.75;7.75;;;;;14.58;47.36;99019.59;4829308;28;102329;-84
2021/10/14 01:19:50;;;;;;;;;8.75;8.25;;;;;14.58;47.05;99022.31;4812719;28;102544;-83
2021/10/14 01:22:17;;;;;;;;;12.50;10.00;;;;;14.55;47.28;99012.69;4808252;28;104337;-84
2021/10/14 01:24:47;;;;;;;;;10.00;9.50;;;;;14.57;47.07;99023.38;4809956;28;103703;-84
2021/10/14 01:27:14;;;;;;;;;13.00;10.25;;;;;14.56;47.35;99030.69;4817123;28;104586;-84
2021/10/14 01:29:41;;;;;;;;;11.00;8.25;;;;;14.57;47.45;99026.09;4820581;28;103271;-84
2021/10/14 01:32:09;;;;;;;;;9.50;8.50;;;;;14.55;47.01;99020.03;4819194;28;104145;-84
2021/10/14 01:34:36;;;;;;;;;9.75;8.75;;;;;14.56;47.22;99021.69;4820820;28;102507;-84
2021/10/14 01:37:03;;;;;;;;;12.00;9.00;;;;;14.56;47.38;99027.13;4809139;28;103207;-84
2021/10/14 01:39:30;;;;;;;;;13.75;10.25;;;;;14.56;47.01;99021.69;4824005;28;103420;-83
2021/10/14 01:41:57;;;;;;;;;3.75;3.25;;;;;14.55;47.44;99020.84;4823322;28;104399;-84
2021/10/14 01:44:24;;;;;;;;;9.50;9.00;;;;;14.56;47.47;99021.69;4827274;28;103906;-84
2021/10/14 01:46:54;;;;;;;;;7.50;7.00;;;;;14.54;47.56;99027.38;4830940;28;102042;-83
2021/10/14 01:49:21;;;;;;;;;10.75;9.25;;;;;14.55;46.98;99025.47;4810183;28;102557;-83
2021/10/14 01:51:48;;;;;;;;;10.75;9.00;;;;;14.55;47.17;99031.75;4824149;28;104444;-84
2021/10/14 01:54:17;;;;;;;;;7.75;6.50;;;;;14.53;47.14;99031.13;4814235;28;103135;-84
2021/10/14 01:56:44;;;;;;;;;10.50;8.50;;;;;14.53;46.99;99033.88;4818921;28;102698;-84
2021/10/14 01:59:11;;;;;;;;;8.75;7.75;;;;;14.53;47.46;99033.03;4818456;28;104224;-84
2021/10/14 02:01:37;;;;;;;;;9.75;8.75;;;;;14.54;47.36;99040.97;4820675;28;104067;-84
2021/10/14 02:04:05;;;;;;;;;9.25;8.00;;;;;14.53;47.40;99043.91;4806388;28;102391;-84
2021/10/14 02:06:32;;;;;;;;;8.75;8.25;;;;;14.53;47.20;99046.63;4815452;28;103686;-84
2021/10/14 02:08:59;;;;;;;;;9.25;9.00;;;;;14.54;47.45;99040.16;4818806;28;103661;-84
2021/10/14 02:11:26;;;;;;;;;9.00;8.00;;;;;14.51;47.57;99046.84;4818433;28;104516;-84
2021/10/14 02:13:54;;;;;;;;;9.00;8.00;;;;;14.51;47.30;99046.00;4812032;28;102335;-84
2021/10/14 02:16:21;;;;;;;;;8.00;7.00;;;;;14.51;47.30;99052.28;4823256;28;102657;-83
2021/10/14 02:18:49;;;;;;;;;9.00;8.00;;;;;14.51;46.92;99046.00;4828484;28;102552;-84
2021/10/14 02:21:17;;;;;;;;;8.75;7.00;;;;;14.50;47.17;99044.34;4815480;28;109458;-84
2021/10/14 02:23:44;;;;;;;;;9.25;8.75;;;;;14.50;47.01;99055.22;4825299;28;102548;-84
2021/10/14 02:26:11;;;;;;;;;9.00;8.25;;;;;14.51;47.13;99051.44;4839530;28;102515;-84
2021/10/14 02:28:38;;;;;;;;;10.75;8.25;;;;;14.50;47.30;99047.88;4825622;28;103212;-84
2021/10/14 02:31:05;;;;;;;;;6.75;5.50;;;;;14.50;47.21;99049.78;4823418;28;105400;-84
2021/10/14 02:33:32;;;;;;;;;8.00;7.50;;;;;14.48;47.37;99041.00;4810322;28;103147;-84
2021/10/14 02:35:59;;;;;;;;;6.00;6.00;;;;;14.49;47.15;99048.94;4824968;28;102233;-83
2021/10/14 02:38:26;;;;;;;;;6.50;6.00;;;;;14.49;46.85;99045.41;4826309;28;103718;-84
2021/10/14 02:40:53;;;;;;;;;7.00;7.00;;;;;14.48;46.65;99035.56;4831032;28;104575;-83
2021/10/14 02:43:20;;;;;;;;;8.50;7.50;;;;;14.49;47.03;99043.50;4826567;28;102243;-84
2021/10/14 02:45:47;;;;;;;;;8.25;7.25;;;;;14.49;47.26;99039.94;4821221;28;102940;-84
2021/10/14 02:48:14;;;;;;;;;9.25;8.00;;;;;14.48;46.67;99041.00;4827591;28;102265;-84
2021/10/14 02:50:41;;;;;;;;;8.25;7.75;;;;;14.47;47.41;99037.44;4815231;28;104474;-84
2021/10/14 02:53:08;;;;;;;;;9.50;6.75;;;;;14.49;47.18;99056.28;4814272;28;103298;-84
2021/10/14 02:55:36;;;;;;;;;9.00;8.00;;;;;14.47;46.66;99050.19;4820066;28;105644;-84
2021/10/14 02:58:03;;;;;;;;;9.00;7.50;;;;;14.46;46.74;99043.09;4812891;28;102853;-84
2021/10/14 03:00:30;;;;;;;;;8.75;8.00;;;;;14.47;46.66;99050.19;4811183;28;104673;-84
2021/10/14 03:02:57;;;;;;;;;8.75;7.00;;;;;14.46;46.90;99051.25;4823928;28;102457;-84
2021/10/14 03:05:24;;;;;;;;;7.75;7.50;;;;;14.47;47.36;99056.47;4826731;28;102781;-83
2021/10/14 03:07:51;;;;;;;;;7.50;6.00;;;;;14.46;46.37;99060.25;4831579;28;112132;-84
2021/10/14 03:10:18;;;;;;;;;7.50;7.00;;;;;14.46;47.04;99059.41;4818743;28;108660;-84
2021/10/14 03:12:45;;;;;;;;;8.50;7.25;;;;;14.47;47.12;99066.53;4821834;28;102171;-84
2021/10/14 03:15:12;;;;;;;;;9.50;8.00;;;;;14.47;47.04;99066.53;4822294;28;102101;-84
2021/10/14 03:17:39;;;;;;;;;8.00;6.75;;;;;14.47;46.85;99063.81;4830536;28;102685;-83
2021/10/14 03:20:06;;;;;;;;;7.00;6.00;;;;;14.46;47.17;99075.72;4820904;28;105837;-84
2021/10/14 03:22:33;;;;;;;;;7.25;6.25;;;;;14.45;46.77;99077.66;4823047;28;102316;-84
2021/10/14 03:25:00;;;;;;;;;8.00;7.75;;;;;14.46;47.16;99083.91;4828650;28;102760;-84
2021/10/14 03:27:28;;;;;;;;;7.00;6.00;;;;;14.46;47.05;99087.44;4827729;28;103841;-84
2021/10/14 03:29:54;;;;;;;;;9.00;7.50;;;;;14.46;47.04;99086.63;4818943;28;105632;-83
2021/10/14 03:32:22;;;;;;;;;9.25;6.00;;;;;14.45;47.18;99095.84;4830097;28;102085;-84
2021/10/14 03:34:50;;;;;;;;;6.00;5.25;;;;;14.45;46.87;99091.25;4817107;28;102514;-84
2021/10/14 03:37:18;;;;;;;;;9.00;7.75;;;;;14.45;46.79;99102.13;4824759;28;102394;-84
2021/10/14 03:39:45;;;;;;;;;7.75;6.50;;;;;14.44;46.67;99094.19;4830200;28;104312;-84
2021/10/14 03:42:13;;;;;;;;;8.00;7.00;;;;;14.43;47.11;99096.06;4817449;28;103048;-84
2021/10/14 03:44:40;;;;;;;;;6.25;6.00;;;;;14.45;47.05;99095.84;4821402;28;103517;-84
2021/10/14 03:47:08;;;;;;;;;7.25;6.00;;;;;14.44;47.12;99105.06;4819990;28;103906;-84
2021/10/14 03:49:35;;;;;;;;;8.25;7.00;;;;;14.43;46.88;99108.81;4825000;28;104078;-84
2021/10/14 03:52:02;;;;;;;;;7.75;7.00;;;;;14.42;46.53;99101.69;4810778;28;102426;-83
2021/10/14 03:54:29;;;;;;;;;6.50;5.75;;;;;14.43;46.72;99097.94;4825494;28;104494;-83
2021/10/14 03:56:56;;;;;;;;;6.50;5.50;;;;;14.43;46.68;99098.78;4811409;28;102750;-83
2021/10/14 03:59:23;;;;;;;;;7.50;6.25;;;;;14.43;46.77;99101.50;4821790;28;104059;-84
2021/10/14 04:01:52;;;;;;;;;9.50;7.25;;;;;14.42;47.12;99090.81;4830034;28;102855;-84
2021/10/14 04:04:21;;;;;;;;;11.50;7.00;;;;;14.43;47.29;99101.50;4814515;28;103063;-84
2021/10/14 04:06:49;;;;;;;;;6.75;6.00;;;;;14.43;47.30;99103.38;4807449;28;106143;-84
2021/10/14 04:09:16;;;;;;;;;8.50;7.50;;;;;14.41;46.63;99097.34;4808369;28;103950;-84
2021/10/14 04:11:43;;;;;;;;;8.00;6.75;;;;;14.42;46.64;99098.97;4809396;28;102649;-84
2021/10/14 04:14:10;;;;;;;;;6.00;6.00;;;;;14.41;47.27;99100.84;4826296;28;105424;-84
2021/10/14 04:16:37;;;;;;;;;6.00;6.00;;;;;14.41;46.78;99103.59;4820146;28;102637;-84
2021/10/14 04:19:04;;;;;;;;;9.00;7.25;;;;;14.41;46.57;99111.75;4820521;28;104313;-84
2021/10/14 04:21:31;;;;;;;;;6.75;6.00;;;;;14.40;47.01;99112.81;4809138;28;102412;-84
2021/10/14 04:23:58;;;;;;;;;7.75;5.00;;;;;14.41;47.41;99110.94;4821791;28;103381;-83
2021/10/14 04:26:25;;;;;;;;;8.25;6.00;;;;;14.38;47.22;99116.78;4821875;28;104059;-83
2021/10/14 04:28:52;;;;;;;;;7.75;6.75;;;;;14.41;47.53;99124.53;4828477;28;104071;-84
2021/10/14 04:31:19;;;;;;;;;6.75;6.00;;;;;14.40;47.10;99118.25;4825901;28;102549;-84
2021/10/14 04:33:46;;;;;;;;;8.75;7.00;;;;;14.41;46.99;99127.25;4812386;28;102563;-84
2021/10/14 04:36:13;;;;;;;;;9.00;6.25;;;;;14.42;47.42;99128.91;4807281;28;102760;-84
2021/10/14 04:38:40;;;;;;;;;7.50;7.00;;;;;14.42;47.28;99131.63;4826363;28;104231;-84
2021/10/14 04:41:07;;;;;;;;;6.50;6.25;;;;;14.42;47.57;99134.34;4817730;28;102373;-84
2021/10/14 04:43:34;;;;;;;;;7.00;6.50;;;;;14.42;47.40;99137.91;4806234;28;102876;-84
2021/10/14 04:46:01;;;;;;;;;8.00;7.00;;;;;14.41;47.21;99138.16;4825867;28;102312;-84
2021/10/14 04:48:28;;;;;;;;;7.00;6.00;;;;;14.41;47.33;99132.69;4818964;28;104066;-84
2021/10/14 04:50:55;;;;;;;;;7.00;6.50;;;;;14.41;47.30;99138.16;4830534;28;103539;-84
2021/10/14 04:53:24;;;;;;;;;8.75;6.00;;;;;14.40;47.30;99142.75;4820279;28;102657;-84
2021/10/14 04:55:51;;;;;;;;;6.50;6.50;;;;;14.40;46.72;99141.91;4818488;28;102854;-84
2021/10/14 04:58:18;;;;;;;;;8.50;5.25;;;;;14.40;47.30;99148.19;4817311;28;103531;-84
2021/10/14 05:00:45;;;;;;;;;6.00;6.00;;;;;14.40;47.34;99142.75;4817583;28;102370;-84
2021/10/14 05:03:13;;;;;;;;;7.00;6.25;;;;;14.40;47.19;99152.78;4806744;28;104831;-84
2021/10/14 05:05:41;;;;;;;;;8.00;7.00;;;;;14.41;47.30;99149.84;4823135;28;103813;-84
2021/10/14 05:08:08;;;;;;;;;5.25;5.25;;;;;14.39;47.34;99157.38;4818205;28;104077;-84
2021/10/14 05:10:35;;;;;;;;;6.75;5.00;;;;;14.39;47.10;99154.66;4820277;28;102426;-84
2021/10/14 05:13:02;;;;;;;;;11.00;6.75;;;;;14.41;46.61;99151.75;4821708;28;102589;-84
2021/10/14 05:15:29;;;;;;;;;6.25;5.50;;;;;14.40;47.02;99160.94;4835992;28;107817;-84
2021/10/14 05:17:56;;;;;;;;;6.00;6.00;;;;;14.39;47.10;99159.28;4818952;28;109205;-84
2021/10/14 05:20:23;;;;;;;;;8.75;5.25;;;;;14.40;47.25;99155.50;4823200;28;103741;-84
2021/10/14 05:22:50;;;;;;;;;6.00;6.00;;;;;14.40;46.75;99158.22;4797506;28;102708;-84
2021/10/14 05:25:17;;;;;;;;;8.75;7.75;;;;;14.40;46.90;99167.22;4831052;28;102231;-84
2021/10/14 05:27:44;;;;;;;;;9.50;8.00;;;;;14.36;46.91;99157.81;4804924;28;104096;-84
2021/10/14 05:30:11;;;;;;;;;7.00;6.50;;;;;14.37;46.97;99148.59;4810014;28;103221;-84
2021/10/14 05:32:38;;;;;;;;;3.25;1.25;;;;;14.39;46.94;99167.44;4805845;28;102867;-84
2021/10/14 05:35:05;;;;;;;;;6.00;5.00;;;;;14.39;46.89;99164.72;4821224;28;103274;-84
2021/10/14 05:37:32;;;;;;;;;5.00;5.00;;;;;14.38;46.71;99166.59;4816382;28;104352;-83
2021/10/14 05:40:00;;;;;;;;;5.75;5.75;;;;;14.38;46.97;99173.91;4815621;28;102638;-84
2021/10/14 05:42:26;;;;;;;;;8.00;7.00;;;;;14.38;47.08;99157.59;4801327;28;104451;-84
2021/10/14 05:44:53;;;;;;;;;6.00;6.00;;;;;14.37;47.03;99164.06;4811078;28;102326;-84
2021/10/14 05:47:20;;;;;;;;;5.75;5.75;;;;;14.37;46.88;99166.78;4808654;28;104060;-84
2021/10/14 05:49:51;;;;;;;;;5.25;5.25;;;;;14.37;46.61;99167.63;4815756;28;109639;-84
2021/10/14 05:52:17;;;;;;;;;5.00;4.75;;;;;14.37;47.13;99172.22;4813285;28;102537;-84
2021/10/14 05:54:44;;;;;;;;;5.00;5.00;;;;;14.37;46.89;99188.56;4817790;28;102255;-84
2021/10/14 05:57:12;;;;;;;;;8.25;7.25;;;;;14.37;46.72;99185.84;4816930;28;104278;-84
2021/10/14 05:59:39;;;;;;;;;7.75;6.00;;;;;14.37;46.97;99183.97;4824524;28;102317;-84
2021/10/14 06:02:06;;;;;;;;;5.25;5.25;;;;;14.38;47.08;99187.53;4810642;28;102516;-84
2021/10/14 06:04:33;;;;;;;;;5.50;4.25;;;;;14.37;46.90;99183.13;4819751;28;102861;-83
2021/10/14 06:07:00;;;;;;;;;7.75;6.00;;;;;14.36;46.61;99178.75;4832368;28;104336;-84
2021/10/14 06:09:27;;;;;;;;;6.00;6.00;;;;;14.37;47.26;99189.41;4826190;28;102431;-84
2021/10/14 06:11:54;;;;;;;;;6.00;5.00;;;;;14.36;47.01;99178.75;4818968;28;105617;-84
2021/10/14 06:14:21;;;;;;;;;6.25;6.25;;;;;14.36;46.77;99184.19;4833564;28;102663;-84
2021/10/14 06:16:48;;;;;;;;;6.25;5.25;;;;;14.37;47.00;99174.97;4833357;28;104087;-84
2021/10/14 06:19:15;;;;;;;;;6.50;6.25;;;;;14.35;46.49;99172.44;4824402;28;103770;-84
2021/10/14 06:21:42;;;;;;;;;5.50;4.50;;;;;14.36;47.03;99168.72;4835400;28;103177;-84
2021/10/14 06:24:11;;;;;;;;;6.25;5.00;;;;;14.36;46.62;99167.88;4833850;28;102403;-84
2021/10/14 06:26:38;;;;;;;;;6.00;5.00;;;;;14.35;46.63;99167.00;4825397;28;105077;-84
2021/10/14 06:29:05;;;;;;;;;7.00;6.00;;;;;14.35;46.67;99164.28;4821505;28;102540;-83
2021/10/14 06:31:32;;;;;;;;;5.75;5.00;;;;;14.35;46.81;99161.56;4835342;28;102491;-84
2021/10/14 06:33:59;;;;;;;;;5.50;3.50;;;;;14.36;47.25;99167.88;4825507;28;102522;-84
2021/10/14 06:36:26;;;;;;;;;6.00;5.00;;;;;14.35;46.96;99163.44;4821750;28;104260;-83
2021/10/14 06:38:53;;;;;;;;;5.00;4.75;;;;;14.35;47.09;99172.44;4825703;28;109620;-84
2021/10/14 06:41:20;;;;;;;;;5.00;5.00;;;;;14.30;47.13;99164.91;4818282;28;103616;-84
2021/10/14 06:43:47;;;;;;;;;6.00;5.00;;;;;14.35;46.48;99172.44;4823662;28;102313;-84
2021/10/14 06:46:14;;;;;;;;;5.00;4.25;;;;;14.36;46.84;99159.69;4828096;28;103984;-84
2021/10/14 06:48:42;;;;;;;;;6.75;5.75;;;;;14.35;46.75;99171.59;4823036;28;102466;-84
2021/10/14 06:51:09;;;;;;;;;5.75;4.00;;;;;14.36;46.70;99170.59;4828637;28;102539;-84
2021/10/14 06:53:36;;;;;;;;;6.25;5.25;;;;;14.35;46.66;99171.59;4828966;28;104065;-84
2021/10/14 06:56:03;;;;;;;;;6.00;5.00;;;;;14.35;47.16;99168.88;4813152;28;103995;-84
2021/10/14 06:58:32;;;;;;;;;5.00;5.00;;;;;14.36;46.47;99170.59;4820622;28;102521;-84
2021/10/14 07:00:59;;;;;;;;;5.00;4.00;;;;;14.35;47.18;99171.59;4827369;28;102576;-84
2021/10/14 07:03:26;;;;;;;;;6.50;5.00;;;;;14.36;46.88;99184.19;4825035;28;102251;-84
2021/10/14 07:05:53;;;;;;;;;5.75;4.75;;;;;14.35;46.52;99177.88;4824493;28;104376;-84
2021/10/14 07:08:22;;;;;;;;;5.00;5.00;;;;;14.35;46.65;99177.88;4816708;28;102620;-84
2021/10/14 07:10:51;;;;;;;;;5.00;5.00;;;;;14.33;46.75;99177.25;4814488;28;104558;-84
2021/10/14 07:13:19;;;;;;;;;6.50;5.00;;;;;14.35;47.16;99177.03;4818874;28;102513;-84
2021/10/14 07:15:46;;;;;;;;;7.75;5.25;;;;;14.34;46.72;99169.91;4826948;28;103820;-84
2021/10/14 07:18:13;;;;;;;;;4.00;4.00;;;;;14.34;46.86;99175.34;4818380;28;102312;-84
2021/10/14 07:20:41;;;;;;;;;6.75;6.00;;;;;14.34;47.44;99165.31;4823521;28;102428;-84
2021/10/14 07:23:12;;;;;;;;;5.00;4.25;;;;;14.36;47.12;99173.31;4825196;28;104824;-83
2021/10/14 07:25:40;;;;;;;;;6.25;5.00;;;;;14.35;46.96;99171.59;4819328;28;104016;-83
2021/10/14 07:28:07;;;;;;;;;5.00;5.00;;;;;14.35;46.61;99169.72;4831439;28;103058;-84
2021/10/14 07:30:34;;;;;;;;;4.75;4.00;;;;;14.36;47.19;99173.31;4825862;28;102254;-84
2021/10/14 07:33:05;;;;;;;;;6.50;6.00;;;;;14.35;46.93;99177.03;4823155;28;102239;-84
2021/10/14 07:35:36;;;;;;;;;7.00;4.75;;;;;14.36;46.58;99173.31;4823328;28;105344;-84
2021/10/14 07:38:11;;;;;;;;;5.00;4.50;;;;;14.34;46.75;99165.31;4828013;28;102444;-84
2021/10/14 07:40:40;;;;;;;;;7.00;5.00;;;;;14.35;46.87;99169.72;4811158;28;102288;-83
2021/10/14 07:43:11;;;;;;;;;4.75;4.00;;;;;14.34;46.91;99176.19;4829557;28;102694;-84
2021/10/14 07:45:39;;;;;;;;;4.75;4.75;;;;;14.35;46.20;99167.00;4816829;28;108916;-83
2021/10/14 07:48:07;;;;;;;;;6.25;5.25;;;;;14.35;46.95;99177.03;4825845;28;102109;-84
2021/10/14 07:50:36;;;;;;;;;5.00;5.00;;;;;14.35;46.52;99182.47;4824880;28;102104;-84
2021/10/14 07:53:29;;;;;;;;;8.25;4.50;;;;;14.34;46.87;99178.91;4830261;28;102549;-84
2021/10/14 07:55:56;;;;;;;;;5.00;5.00;;;;;14.35;47.15;99177.88;4828059;28;109217;-84
2021/10/14 07:58:25;;;;;;;;;4.25;4.25;;;;;14.35;46.86;99188.75;4830949;28;102588;-84
2021/10/14 08:00:52;;;;;;;;;4.50;4.50;;;;;14.35;46.44;99182.47;4823531;28;102681;-84
2021/10/14 08:03:19;;;;;;;;;5.50;5.00;;;;;14.34;46.72;99187.06;4835956;28;102661;-84
2021/10/14 08:05:47;;;;;;;;;5.00;4.00;;;;;14.34;46.56;99186.22;4834344;28;104175;-84
2021/10/14 08:08:14;;;;;;;;;7.00;5.00;;;;;14.34;46.93;99183.53;4825389;28;102609;-84
2021/10/14 08:10:42;;;;;;;;;5.25;4.75;;;;;14.35;47.05;99193.34;4829791;28;102048;-84
2021/10/14 08:13:14;;;;;;;;;6.00;5.00;;;;;14.35;46.59;99187.91;4834710;28;102413;-84
2021/10/14 08:15:44;;;;;;;;;5.25;5.00;;;;;14.35;47.17;99190.63;4819967;28;104645;-84
2021/10/14 08:18:11;;;;;;;;;6.00;5.00;;;;;14.36;46.49;99190.47;4819098;28;102168;-84
2021/10/14 08:20:38;;;;;;;;;6.50;5.50;;;;;14.35;46.57;99194.19;4831252;28;102752;-84
2021/10/14 08:23:06;;;;;;;;;4.75;4.75;;;;;14.36;46.64;99190.47;4821037;28;102502;-84
2021/10/14 08:25:34;;;;;;;;;5.50;5.25;;;;;14.36;46.94;99195.06;4821345;28;109008;-84
2021/10/14 08:28:00;;;;;;;;;5.00;5.00;;;;;14.34;46.59;99192.50;4831082;28;104424;-84
2021/10/14 08:30:27;;;;;;;;;6.00;6.00;;;;;14.35;47.07;99193.34;4819074;28;102528;-84
2021/10/14 08:32:54;;;;;;;;;6.00;5.00;;;;;14.36;46.72;99195.91;4820600;28;102166;-84
2021/10/14 08:35:22;;;;;;;;;5.00;5.00;;;;;14.36;46.67;99192.34;4823843;28;104072;-84
2021/10/14 08:37:49;;;;;;;;;6.00;5.50;;;;;14.36;46.74;99186.91;4817972;28;102139;-84
2021/10/14 08:40:16;;;;;;;;;5.00;4.75;;;;;14.37;46.60;99191.28;4816929;28;102374;-84
2021/10/14 08:42:43;;;;;;;;;5.00;5.00;;;;;14.37;46.57;99183.13;4818285;28;102839;-84
2021/10/14 08:45:11;;;;;;;;;10.00;5.00;;;;;14.37;47.19;99183.13;4807610;28;104000;-83
2021/10/14 08:47:39;;;;;;;;;5.25;4.75;;;;;14.38;46.64;99173.91;4815804;28;103066;-84
2021/10/14 08:50:07;;;;;;;;;6.75;5.75;;;;;14.37;46.46;99173.06;4814313;28;104299;-84
2021/10/14 08:52:34;;;;;;;;;7.50;6.50;;;;;14.38;46.63;99182.91;4792900;28;103705;-84
2021/10/14 08:55:01;;;;;;;;;4.00;4.00;;;;;14.39;47.06;99172.88;4817371;28;104027;-84
2021/10/14 08:57:28;;;;;;;;;5.00;4.75;;;;;14.38;47.11;99172.03;4820965;28;102382;-84
2021/10/14 08:59:55;;;;;;;;;5.50;5.00;;;;;14.38;47.10;99166.59;4816590;28;102514;-84
2021/10/14 09:02:23;;;;;;;;;5.50;5.50;;;;;14.39;46.93;99162.84;4824863;28;102596;-84
2021/10/14 09:04:56;;;;;;;;;6.00;5.75;;;;;14.41;46.83;99170.78;4819892;28;104137;-84
2021/10/14 09:07:25;;;;;;;;;5.75;5.00;;;;;14.42;46.93;99167.00;4822523;28;102211;-84
2021/10/14 09:09:53;;;;;;;;;7.00;6.00;;;;;14.42;47.00;99161.56;4827835;28;102557;-84
2021/10/14 09:12:22;;;;;;;;;5.50;4.00;;;;;14.42;46.92;99167.00;4830263;28;102462;-84
2021/10/14 09:15:19;;;;;;;;;5.00;5.00;;;;;14.42;46.46;99154.22;4827735;28;104190;-84
2021/10/14 09:17:53;;;;;;;;;5.00;5.00;;;;;14.42;46.15;99161.56;4813505;28;102524;-84
2021/10/14 09:20:20;;;;;;;;;6.00;5.00;;;;;14.42;46.53;99161.56;4807342;29;102181;-84
2021/10/14 09:23:05;;;;;;;;;5.00;4.75;;;;;14.42;46.95;99156.94;4828668;28;102590;-84
2021/10/14 09:25:34;;;;;;;;;5.75;4.50;;;;;14.43;46.44;99155.06;4820897;28;104009;-84
2021/10/14 09:28:28;;;;;;;;;2.00;2.00;;;;;14.44;47.10;99156.75;4822725;28;102124;-84
2021/10/14 09:31:01;;;;;;;;;7.00;6.00;;;;;14.44;46.80;99165.75;4814220;28;102626;-84
2021/10/14 09:33:31;;;;;;;;;8.00;7.25;;;;;14.44;46.87;99151.31;4831790;28;102635;-84
2021/10/14 09:36:21;;;;;;;;;7.00;5.75;;;;;14.43;47.01;99163.22;4816963;28;103479;-83
2021/10/14 09:39:03;;;;;;;;;7.50;4.00;;;;;14.45;46.86;99147.56;4743514;28;102585;-84
2021/10/14 09:41:39;;;;;;;;;7.25;6.50;;;;;14.46;46.65;99154.63;4791434;28;102629;-84
2021/10/14 09:44:07;;;;;;;;;5.50;4.00;;;;;14.45;46.47;99153.84;4821114;28;102226;-84
2021/10/14 09:46:55;;;;;;;;;6.25;5.50;;;;;14.46;47.03;99150.03;4846015;28;104083;-84
2021/10/14 09:49:23;;;;;;;;;6.00;5.25;;;;;14.47;46.92;99148.16;4850781;28;102430;-84
2021/10/14 09:51:50;;;;;;;;;5.00;5.00;;;;;14.47;46.54;99145.44;4614952;28;102660;-84
2021/10/14 09:54:17;;;;;;;;;6.00;5.00;;;;;14.47;47.21;99143.56;4751673;28;102221;-84
2021/10/14 09:56:44;;;;;;;;;6.00;5.75;;;;;14.48;46.64;99144.38;4832092;28;104058;-84
2021/10/14 09:59:11;;;;;;;;;5.00;5.00;;;;;14.48;46.95;99149.84;4832354;28;102532;-84
2021/10/14 10:01:40;;;;;;;;;5.50;4.50;;;;;14.48;46.50;99139.78;4833581;28;102352;-84
2021/10/14 10:04:09;;;;;;;;;6.00;5.00;;;;;14.48;46.86;99142.50;4803007;28;102895;-84
2021/10/14 10:06:38;;;;;;;;;3.50;3.50;;;;;14.47;46.29;99138.09;4823329;28;103102;-84
2021/10/14 10:09:27;;;;;;;;;7.00;6.00;;;;;14.49;46.77;99138.75;4808679;28;101968;-84
2021/10/14 10:11:54;;;;;;;;;5.00;5.00;;;;;14.49;46.51;99140.63;4799654;28;104560;-84
2021/10/14 10:14:22;;;;;;;;;6.00;4.75;;;;;14.50;46.98;99139.59;4802341;28;103303;-85
2021/10/14 10:16:57;;;;;;;;;6.00;6.00;;;;;14.48;46.03;99131.63;4822037;28;104613;-84
2021/10/14 10:19:49;;;;;;;;;7.00;5.00;;;;;14.49;47.02;99124.31;4837138;28;102215;-84
2021/10/14 10:22:34;;;;;;;;;7.00;5.75;;;;;14.50;46.48;99125.97;4808315;28;102617;-84
2021/10/14 10:25:34;;;;;;;;;7.50;4.75;;;;;14.50;46.43;99115.91;4706362;28;102628;-84
2021/10/14 10:28:03;;;;;;;;;4.50;4.00;;;;;14.51;46.63;99117.59;4837825;28;108835;-84
2021/10/14 10:30:52;;;;;;;;;4.75;4.00;;;;;14.49;46.78;99107.97;4833879;28;102162;-84
2021/10/14 10:33:53;;;;;;;;;6.00;6.00;;;;;14.54;46.50;99116.34;4833126;28;102648;-84
2021/10/14 10:36:46;;;;;;;;;6.50;5.00;;;;;14.55;46.97;99117.97;4824720;28;102304;-84
2021/10/14 10:39:47;;;;;;;;;5.25;4.50;;;;;14.55;46.53;99117.97;4821891;28;108925;-84
2021/10/14 10:42:15;;;;;;;;;5.25;4.75;;;;;14.55;46.22;99112.53;4833922;28;102894;-84
2021/10/14 10:44:43;;;;;;;;;7.00;4.50;;;;;14.55;46.80;99101.66;4837731;28;102606;-84
2021/10/14 10:47:38;;;;;;;;;6.00;5.50;;;;;14.54;46.79;99091.84;4823910;28;102258;-84
2021/10/14 10:50:07;;;;;;;;;7.50;5.25;;;;;14.53;46.46;99099.19;4827165;28;108916;-84
2021/10/14 10:52:41;;;;;;;;;5.25;5.25;;;;;14.54;46.45;99091.84;4827093;28;102687;-85
2021/10/14 10:55:21;;;;;;;;;5.25;4.50;;;;;14.53;47.00;99088.28;4824335;28;102186;-85
2021/10/14 10:57:49;;;;;;;;;4.25;4.25;;;;;14.54;46.64;99086.41;4823620;28;103645;-84
2021/10/14 11:00:17;;;;;;;;;6.25;5.75;;;;;14.53;46.24;99082.00;4833206;28;104197;-84
2021/10/14 11:02:44;;;;;;;;;3.50;3.00;;;;;14.54;47.08;99080.97;4838541;28;102354;-84
2021/10/14 11:05:12;;;;;;;;;6.00;6.00;;;;;14.55;46.40;99074.44;4834623;28;104963;-84
2021/10/14 11:07:39;;;;;;;;;4.50;4.50;;;;;14.55;46.43;99071.72;4822960;28;102203;-84
2021/10/14 11:10:06;;;;;;;;;6.00;5.00;;;;;14.56;46.97;99062.50;4839845;28;103025;-84
2021/10/14 11:12:33;;;;;;;;;5.50;5.00;;;;;14.57;47.00;99066.91;4836725;28;102487;-84
2021/10/14 11:15:13;;;;;;;;;5.50;4.50;;;;;14.59;46.84;99064.81;4836885;28;102605;-84
2021/10/14 11:17:41;;;;;;;;;5.75;5.00;;;;;14.58;46.41;99058.53;4841964;28;102484;-84
2021/10/14 11:20:08;;;;;;;;;5.50;4.50;;;;;14.56;46.48;99048.91;4836575;28;104077;-85
2021/10/14 11:22:35;;;;;;;;;5.25;3.75;;;;;14.60;46.53;99055.59;4842893;28;102110;-84
2021/10/14 11:25:13;;;;;;;;;5.50;4.25;;;;;14.61;46.37;99051.81;4847966;28;102253;-84
2021/10/14 11:27:40;;;;;;;;;6.50;5.75;;;;;14.60;46.79;99052.88;4835571;28;102211;-85
2021/10/14 11:30:17;;;;;;;;;6.00;5.00;;;;;14.59;46.69;99059.38;4844454;28;103083;-84
2021/10/14 11:33:09;;;;;;;;;6.00;4.00;;;;;14.60;46.53;99050.16;4839483;28;102416;-84